Sanford, Florida
Current Conditions -  °F | °C
As of 10:53 AM on Thursday 23 Oct 2014 (Local Time) from KSFB Reporting Station
Clear Clear  
Wind Chill: 76°   Ceiling: Unl
Heat Index: 76°   Visibility: 10mi
Dew Point: 57°   Wind: 9mph
Humidity: 52%   Direction: 60°ENE
Pressure: 30.02"   Gusts: NA
Location:  28.81°N, 81.27°W
Report Text: KSFB 231453Z 06008KT 10SM CLR 24/14 A3002 RMK AO2 SLP164 T02440139 53006
Loading
Personal Weather Stations






























Interactive Weather Map New forecast layout! Learn more

10-Day Weather Forecast

Advertisements
Track Severe Weather on mobile